sensor_id;sensor_type;location;lat;lon;timestamp;temperature;humidity
51613;DHT22;37694;51.748;14.326;2023-12-20T00:00:56;22.20;41.50
51613;DHT22;37694;51.748;14.326;2023-12-20T00:03:21;22.20;41.50
51613;DHT22;37694;51.748;14.326;2023-12-20T00:05:47;22.20;41.50
51613;DHT22;37694;51.748;14.326;2023-12-20T00:08:13;22.20;41.50
51613;DHT22;37694;51.748;14.326;2023-12-20T00:10:39;22.20;41.50
51613;DHT22;37694;51.748;14.326;2023-12-20T00:13:04;22.20;41.50
51613;DHT22;37694;51.748;14.326;2023-12-20T00:15:31;22.20;41.50
51613;DHT22;37694;51.748;14.326;2023-12-20T00:17:57;22.20;41.50
51613;DHT22;37694;51.748;14.326;2023-12-20T00:20:23;22.20;41.50
51613;DHT22;37694;51.748;14.326;2023-12-20T00:22:48;22.10;41.40
51613;DHT22;37694;51.748;14.326;2023-12-20T00:25:14;22.10;41.50
51613;DHT22;37694;51.748;14.326;2023-12-20T00:27:40;22.10;41.50
51613;DHT22;37694;51.748;14.326;2023-12-20T00:30:06;22.10;41.40
51613;DHT22;37694;51.748;14.326;2023-12-20T00:32:31;22.10;41.40
51613;DHT22;37694;51.748;14.326;2023-12-20T00:34:57;22.10;41.50
51613;DHT22;37694;51.748;14.326;2023-12-20T00:37:23;22.10;41.50
51613;DHT22;37694;51.748;14.326;2023-12-20T00:39:49;22.10;41.50
51613;DHT22;37694;51.748;14.326;2023-12-20T00:42:15;22.00;41.40
51613;DHT22;37694;51.748;14.326;2023-12-20T00:44:40;22.00;41.40
51613;DHT22;37694;51.748;14.326;2023-12-20T00:47:06;22.00;41.50
51613;DHT22;37694;51.748;14.326;2023-12-20T00:49:32;22.00;41.50
51613;DHT22;37694;51.748;14.326;2023-12-20T00:51:58;22.00;41.50
51613;DHT22;37694;51.748;14.326;2023-12-20T00:54:24;22.00;41.50
51613;DHT22;37694;51.748;14.326;2023-12-20T00:56:49;22.00;41.50
51613;DHT22;37694;51.748;14.326;2023-12-20T00:59:16;22.00;41.50
51613;DHT22;37694;51.748;14.326;2023-12-20T01:01:42;22.00;41.60
51613;DHT22;37694;51.748;14.326;2023-12-20T01:04:08;21.90;41.50
51613;DHT22;37694;51.748;14.326;2023-12-20T01:06:33;21.90;41.50
51613;DHT22;37694;51.748;14.326;2023-12-20T01:08:59;21.90;41.50
51613;DHT22;37694;51.748;14.326;2023-12-20T01:11:25;21.90;41.50
51613;DHT22;37694;51.748;14.326;2023-12-20T01:13:50;21.90;41.40
51613;DHT22;37694;51.748;14.326;2023-12-20T01:16:16;21.90;41.50
51613;DHT22;37694;51.748;14.326;2023-12-20T01:18:42;21.90;41.50
51613;DHT22;37694;51.748;14.326;2023-12-20T01:21:07;21.90;41.50
51613;DHT22;37694;51.748;14.326;2023-12-20T01:23:33;21.90;41.50
51613;DHT22;37694;51.748;14.326;2023-12-20T01:25:59;21.90;41.50
51613;DHT22;37694;51.748;14.326;2023-12-20T01:28:28;21.80;41.50
51613;DHT22;37694;51.748;14.326;2023-12-20T01:30:54;21.80;41.40
51613;DHT22;37694;51.748;14.326;2023-12-20T01:33:19;21.80;41.50
51613;DHT22;37694;51.748;14.326;2023-12-20T01:35:45;21.80;41.40
51613;DHT22;37694;51.748;14.326;2023-12-20T01:38:10;21.80;41.40
51613;DHT22;37694;51.748;14.326;2023-12-20T01:40:36;21.80;41.40
51613;DHT22;37694;51.748;14.326;2023-12-20T01:43:07;21.80;41.40
51613;DHT22;37694;51.748;14.326;2023-12-20T01:45:33;21.80;41.40
51613;DHT22;37694;51.748;14.326;2023-12-20T01:47:59;21.80;41.50
51613;DHT22;37694;51.748;14.326;2023-12-20T01:50:25;21.80;41.50
51613;DHT22;37694;51.748;14.326;2023-12-20T01:52:53;21.80;41.50
51613;DHT22;37694;51.748;14.326;2023-12-20T01:55:21;21.70;41.40
51613;DHT22;37694;51.748;14.326;2023-12-20T01:57:47;21.80;41.40
51613;DHT22;37694;51.748;14.326;2023-12-20T02:00:13;21.70;41.30
51613;DHT22;37694;51.748;14.326;2023-12-20T02:02:40;21.80;41.50
51613;DHT22;37694;51.748;14.326;2023-12-20T02:05:07;21.70;41.40
51613;DHT22;37694;51.748;14.326;2023-12-20T02:07:33;21.70;41.40
51613;DHT22;37694;51.748;14.326;2023-12-20T02:10:01;21.70;41.50
51613;DHT22;37694;51.748;14.326;2023-12-20T02:12:27;21.70;41.40
51613;DHT22;37694;51.748;14.326;2023-12-20T02:14:52;21.70;41.40
51613;DHT22;37694;51.748;14.326;2023-12-20T02:17:20;21.70;41.40
51613;DHT22;37694;51.748;14.326;2023-12-20T02:19:45;21.70;41.40
51613;DHT22;37694;51.748;14.326;2023-12-20T02:22:11;21.70;41.50
51613;DHT22;37694;51.748;14.326;2023-12-20T02:24:38;21.70;41.50
51613;DHT22;37694;51.748;14.326;2023-12-20T02:27:06;21.60;41.40
51613;DHT22;37694;51.748;14.326;2023-12-20T02:29:36;21.60;41.40
51613;DHT22;37694;51.748;14.326;2023-12-20T02:32:02;21.60;41.40
51613;DHT22;37694;51.748;14.326;2023-12-20T02:34:28;21.60;41.40
51613;DHT22;37694;51.748;14.326;2023-12-20T02:36:54;21.60;41.40
51613;DHT22;37694;51.748;14.326;2023-12-20T02:39:21;21.60;41.40
51613;DHT22;37694;51.748;14.326;2023-12-20T02:41:47;21.60;41.50
51613;DHT22;37694;51.748;14.326;2023-12-20T02:44:13;21.60;41.40
51613;DHT22;37694;51.748;14.326;2023-12-20T02:46:39;21.60;42.20
51613;DHT22;37694;51.748;14.326;2023-12-20T02:49:05;21.60;41.40
51613;DHT22;37694;51.748;14.326;2023-12-20T02:51:31;21.60;41.40
51613;DHT22;37694;51.748;14.326;2023-12-20T02:53:57;21.50;41.40
51613;DHT22;37694;51.748;14.326;2023-12-20T02:56:22;21.50;41.40
51613;DHT22;37694;51.748;14.326;2023-12-20T02:58:48;21.50;41.40
51613;DHT22;37694;51.748;14.326;2023-12-20T03:01:14;21.50;41.40
51613;DHT22;37694;51.748;14.326;2023-12-20T03:03:39;21.50;41.40
51613;DHT22;37694;51.748;14.326;2023-12-20T03:06:05;21.50;41.50
51613;DHT22;37694;51.748;14.326;2023-12-20T03:08:31;21.50;41.50
51613;DHT22;37694;51.748;14.326;2023-12-20T03:10:58;21.50;41.50
51613;DHT22;37694;51.748;14.326;2023-12-20T03:13:24;21.50;41.50
51613;DHT22;37694;51.748;14.326;2023-12-20T03:15:49;21.50;41.50
51613;DHT22;37694;51.748;14.326;2023-12-20T03:18:15;21.50;41.50
51613;DHT22;37694;51.748;14.326;2023-12-20T03:20:40;21.50;41.50
51613;DHT22;37694;51.748;14.326;2023-12-20T03:23:07;21.50;41.60
51613;DHT22;37694;51.748;14.326;2023-12-20T03:25:32;21.40;41.50
51613;DHT22;37694;51.748;14.326;2023-12-20T03:27:59;21.50;41.50
51613;DHT22;37694;51.748;14.326;2023-12-20T03:30:25;21.40;41.50
51613;DHT22;37694;51.748;14.326;2023-12-20T03:32:51;21.40;41.50
51613;DHT22;37694;51.748;14.326;2023-12-20T03:35:16;21.50;41.50
51613;DHT22;37694;51.748;14.326;2023-12-20T03:37:42;21.40;41.50
51613;DHT22;37694;51.748;14.326;2023-12-20T03:40:08;21.40;41.50
51613;DHT22;37694;51.748;14.326;2023-12-20T03:42:34;21.40;41.50
51613;DHT22;37694;51.748;14.326;2023-12-20T03:45:00;21.40;41.50
51613;DHT22;37694;51.748;14.326;2023-12-20T03:47:25;21.40;41.50
51613;DHT22;37694;51.748;14.326;2023-12-20T03:49:51;21.40;41.50
51613;DHT22;37694;51.748;14.326;2023-12-20T03:52:17;21.40;41.50
51613;DHT22;37694;51.748;14.326;2023-12-20T03:54:42;21.40;41.50
51613;DHT22;37694;51.748;14.326;2023-12-20T03:57:08;21.30;41.50
51613;DHT22;37694;51.748;14.326;2023-12-20T03:59:37;21.40;41.50
51613;DHT22;37694;51.748;14.326;2023-12-20T04:02:03;21.30;41.50
51613;DHT22;37694;51.748;14.326;2023-12-20T04:04:29;21.30;41.50
51613;DHT22;37694;51.748;14.326;2023-12-20T04:06:55;21.30;41.50
51613;DHT22;37694;51.748;14.326;2023-12-20T04:09:21;21.30;41.50
51613;DHT22;37694;51.748;14.326;2023-12-20T04:11:46;21.30;41.50
51613;DHT22;37694;51.748;14.326;2023-12-20T04:14:12;21.30;41.50
51613;DHT22;37694;51.748;14.326;2023-12-20T04:16:38;21.30;41.50
51613;DHT22;37694;51.748;14.326;2023-12-20T04:19:04;21.30;41.60
51613;DHT22;37694;51.748;14.326;2023-12-20T04:21:30;21.30;41.50
51613;DHT22;37694;51.748;14.326;2023-12-20T04:23:56;21.30;41.40
51613;DHT22;37694;51.748;14.326;2023-12-20T04:26:22;21.30;41.50
51613;DHT22;37694;51.748;14.326;2023-12-20T04:28:47;21.30;41.40
51613;DHT22;37694;51.748;14.326;2023-12-20T04:31:13;21.30;41.40
51613;DHT22;37694;51.748;14.326;2023-12-20T04:33:39;21.40;41.40
51613;DHT22;37694;51.748;14.326;2023-12-20T04:36:04;21.40;41.50
51613;DHT22;37694;51.748;14.326;2023-12-20T04:38:30;21.40;41.70
51613;DHT22;37694;51.748;14.326;2023-12-20T04:40:56;21.40;41.80
51613;DHT22;37694;51.748;14.326;2023-12-20T04:43:22;21.50;41.80
51613;DHT22;37694;51.748;14.326;2023-12-20T04:45:48;21.50;41.60
51613;DHT22;37694;51.748;14.326;2023-12-20T04:48:13;21.50;41.60
51613;DHT22;37694;51.748;14.326;2023-12-20T04:50:39;21.60;41.50
51613;DHT22;37694;51.748;14.326;2023-12-20T04:53:05;21.60;41.50
51613;DHT22;37694;51.748;14.326;2023-12-20T04:55:30;21.70;41.50
51613;DHT22;37694;51.748;14.326;2023-12-20T04:57:56;21.70;41.30
51613;DHT22;37694;51.748;14.326;2023-12-20T05:00:22;21.80;41.30
51613;DHT22;37694;51.748;14.326;2023-12-20T05:02:47;21.90;41.30
51613;DHT22;37694;51.748;14.326;2023-12-20T05:05:13;22.00;41.20
51613;DHT22;37694;51.748;14.326;2023-12-20T05:07:40;22.10;41.10
51613;DHT22;37694;51.748;14.326;2023-12-20T05:10:06;22.10;40.90
51613;DHT22;37694;51.748;14.326;2023-12-20T05:12:33;22.10;40.80
51613;DHT22;37694;51.748;14.326;2023-12-20T05:14:59;22.20;40.90
51613;DHT22;37694;51.748;14.326;2023-12-20T05:17:25;22.30;40.80
51613;DHT22;37694;51.748;14.326;2023-12-20T05:19:51;22.40;40.70
51613;DHT22;37694;51.748;14.326;2023-12-20T05:22:17;22.50;40.60
51613;DHT22;37694;51.748;14.326;2023-12-20T05:24:43;22.60;40.60
51613;DHT22;37694;51.748;14.326;2023-12-20T05:27:08;22.60;40.50
51613;DHT22;37694;51.748;14.326;2023-12-20T05:29:34;22.70;40.50
51613;DHT22;37694;51.748;14.326;2023-12-20T05:32:00;22.80;40.40
51613;DHT22;37694;51.748;14.326;2023-12-20T05:34:25;22.80;40.30
51613;DHT22;37694;51.748;14.326;2023-12-20T05:36:51;22.90;40.20
51613;DHT22;37694;51.748;14.326;2023-12-20T05:39:17;23.00;40.20
51613;DHT22;37694;51.748;14.326;2023-12-20T05:41:42;23.00;40.10
51613;DHT22;37694;51.748;14.326;2023-12-20T05:44:08;23.00;40.10
51613;DHT22;37694;51.748;14.326;2023-12-20T05:46:33;23.10;40.20
51613;DHT22;37694;51.748;14.326;2023-12-20T05:48:59;23.10;40.30
51613;DHT22;37694;51.748;14.326;2023-12-20T05:51:25;23.20;40.50
51613;DHT22;37694;51.748;14.326;2023-12-20T05:53:51;23.30;40.60
51613;DHT22;37694;51.748;14.326;2023-12-20T05:56:16;23.40;40.80
51613;DHT22;37694;51.748;14.326;2023-12-20T05:58:42;23.40;40.90
51613;DHT22;37694;51.748;14.326;2023-12-20T06:01:11;23.50;40.90
51613;DHT22;37694;51.748;14.326;2023-12-20T06:03:40;23.60;40.90
51613;DHT22;37694;51.748;14.326;2023-12-20T06:06:09;23.70;40.90
51613;DHT22;37694;51.748;14.326;2023-12-20T06:08:36;23.70;41.10
51613;DHT22;37694;51.748;14.326;2023-12-20T06:11:01;23.70;41.40
51613;DHT22;37694;51.748;14.326;2023-12-20T06:13:27;23.70;41.40
51613;DHT22;37694;51.748;14.326;2023-12-20T06:15:54;23.80;41.60
51613;DHT22;37694;51.748;14.326;2023-12-20T06:18:20;23.90;42.20
51613;DHT22;37694;51.748;14.326;2023-12-20T06:20:46;23.90;42.10
51613;DHT22;37694;51.748;14.326;2023-12-20T06:23:12;23.90;42.00
51613;DHT22;37694;51.748;14.326;2023-12-20T06:25:37;23.90;42.50
51613;DHT22;37694;51.748;14.326;2023-12-20T06:28:03;23.90;42.20
51613;DHT22;37694;51.748;14.326;2023-12-20T06:30:29;23.90;42.40
51613;DHT22;37694;51.748;14.326;2023-12-20T06:32:55;23.80;42.10
51613;DHT22;37694;51.748;14.326;2023-12-20T06:35:22;23.80;42.20
51613;DHT22;37694;51.748;14.326;2023-12-20T06:37:48;23.70;42.40
51613;DHT22;37694;51.748;14.326;2023-12-20T06:40:14;23.70;42.40
51613;DHT22;37694;51.748;14.326;2023-12-20T06:42:39;23.70;42.30
51613;DHT22;37694;51.748;14.326;2023-12-20T06:45:05;23.60;42.30
51613;DHT22;37694;51.748;14.326;2023-12-20T06:47:31;23.60;42.60
51613;DHT22;37694;51.748;14.326;2023-12-20T06:49:57;23.60;42.40
51613;DHT22;37694;51.748;14.326;2023-12-20T06:52:22;23.60;42.40
51613;DHT22;37694;51.748;14.326;2023-12-20T06:54:48;23.60;42.30
51613;DHT22;37694;51.748;14.326;2023-12-20T06:57:14;23.50;42.20
51613;DHT22;37694;51.748;14.326;2023-12-20T06:59:40;23.50;42.10
51613;DHT22;37694;51.748;14.326;2023-12-20T07:02:06;23.40;42.00
51613;DHT22;37694;51.748;14.326;2023-12-20T07:04:32;23.40;42.10
51613;DHT22;37694;51.748;14.326;2023-12-20T07:06:57;23.40;42.50
51613;DHT22;37694;51.748;14.326;2023-12-20T07:09:26;23.40;42.50
51613;DHT22;37694;51.748;14.326;2023-12-20T07:11:52;23.30;42.70
51613;DHT22;37694;51.748;14.326;2023-12-20T07:14:18;23.30;41.80
51613;DHT22;37694;51.748;14.326;2023-12-20T07:16:44;23.30;41.80
51613;DHT22;37694;51.748;14.326;2023-12-20T07:19:09;23.20;41.70
51613;DHT22;37694;51.748;14.326;2023-12-20T07:21:35;23.20;41.80
51613;DHT22;37694;51.748;14.326;2023-12-20T07:24:01;23.20;41.70
51613;DHT22;37694;51.748;14.326;2023-12-20T07:26:26;23.20;41.60
51613;DHT22;37694;51.748;14.326;2023-12-20T07:28:52;23.10;41.50
51613;DHT22;37694;51.748;14.326;2023-12-20T07:31:18;23.10;41.30
51613;DHT22;37694;51.748;14.326;2023-12-20T07:33:44;23.10;41.50
51613;DHT22;37694;51.748;14.326;2023-12-20T07:36:09;23.10;41.50
51613;DHT22;37694;51.748;14.326;2023-12-20T07:38:35;23.10;41.50
51613;DHT22;37694;51.748;14.326;2023-12-20T07:41:01;23.00;41.50
51613;DHT22;37694;51.748;14.326;2023-12-20T07:43:26;23.00;41.60
51613;DHT22;37694;51.748;14.326;2023-12-20T07:45:52;22.90;41.60
51613;DHT22;37694;51.748;14.326;2023-12-20T07:48:18;23.00;41.70
51613;DHT22;37694;51.748;14.326;2023-12-20T07:50:43;23.00;41.60
51613;DHT22;37694;51.748;14.326;2023-12-20T07:53:09;22.90;41.60
51613;DHT22;37694;51.748;14.326;2023-12-20T07:55:34;22.90;41.60
51613;DHT22;37694;51.748;14.326;2023-12-20T07:58:00;22.80;41.60
51613;DHT22;37694;51.748;14.326;2023-12-20T08:00:27;22.80;41.60
51613;DHT22;37694;51.748;14.326;2023-12-20T08:02:52;22.80;42.50
51613;DHT22;37694;51.748;14.326;2023-12-20T08:05:18;22.80;41.60
51613;DHT22;37694;51.748;14.326;2023-12-20T08:07:44;22.80;41.70
51613;DHT22;37694;51.748;14.326;2023-12-20T08:10:10;22.80;41.70
51613;DHT22;37694;51.748;14.326;2023-12-20T08:12:36;22.80;41.70
51613;DHT22;37694;51.748;14.326;2023-12-20T08:15:02;22.80;41.70
51613;DHT22;37694;51.748;14.326;2023-12-20T08:17:29;22.80;41.70
51613;DHT22;37694;51.748;14.326;2023-12-20T08:19:55;22.80;41.70
51613;DHT22;37694;51.748;14.326;2023-12-20T08:22:21;22.80;41.70
51613;DHT22;37694;51.748;14.326;2023-12-20T08:24:46;22.80;41.80
51613;DHT22;37694;51.748;14.326;2023-12-20T08:27:12;22.80;42.00
51613;DHT22;37694;51.748;14.326;2023-12-20T08:29:38;22.80;41.90
51613;DHT22;37694;51.748;14.326;2023-12-20T08:32:04;22.80;41.90
51613;DHT22;37694;51.748;14.326;2023-12-20T08:34:30;22.80;41.70
51613;DHT22;37694;51.748;14.326;2023-12-20T08:36:55;22.80;41.70
51613;DHT22;37694;51.748;14.326;2023-12-20T08:39:21;22.80;41.60
51613;DHT22;37694;51.748;14.326;2023-12-20T08:41:47;22.80;41.60
51613;DHT22;37694;51.748;14.326;2023-12-20T08:44:12;22.70;41.50
51613;DHT22;37694;51.748;14.326;2023-12-20T08:46:38;22.70;41.50
51613;DHT22;37694;51.748;14.326;2023-12-20T08:49:04;22.70;41.50
51613;DHT22;37694;51.748;14.326;2023-12-20T08:51:30;22.70;41.50
51613;DHT22;37694;51.748;14.326;2023-12-20T08:53:56;22.70;41.50
51613;DHT22;37694;51.748;14.326;2023-12-20T08:56:21;22.70;41.50
51613;DHT22;37694;51.748;14.326;2023-12-20T08:58:47;22.60;41.50
51613;DHT22;37694;51.748;14.326;2023-12-20T09:01:13;22.60;41.50
51613;DHT22;37694;51.748;14.326;2023-12-20T09:03:40;22.60;41.50
51613;DHT22;37694;51.748;14.326;2023-12-20T09:06:06;22.60;41.60
51613;DHT22;37694;51.748;14.326;2023-12-20T09:08:32;22.60;41.50
51613;DHT22;37694;51.748;14.326;2023-12-20T09:10:57;22.60;41.50
51613;DHT22;37694;51.748;14.326;2023-12-20T09:13:23;22.50;41.50
51613;DHT22;37694;51.748;14.326;2023-12-20T09:15:57;22.50;41.50
51613;DHT22;37694;51.748;14.326;2023-12-20T09:18:23;22.50;41.50
51613;DHT22;37694;51.748;14.326;2023-12-20T09:20:49;22.50;41.50
51613;DHT22;37694;51.748;14.326;2023-12-20T09:23:14;22.50;41.50
51613;DHT22;37694;51.748;14.326;2023-12-20T09:25:40;22.50;41.50
51613;DHT22;37694;51.748;14.326;2023-12-20T09:28:06;22.40;41.50
51613;DHT22;37694;51.748;14.326;2023-12-20T09:30:32;22.40;41.50
51613;DHT22;37694;51.748;14.326;2023-12-20T09:32:57;22.40;41.50
51613;DHT22;37694;51.748;14.326;2023-12-20T09:35:23;22.40;41.50
51613;DHT22;37694;51.748;14.326;2023-12-20T09:37:49;22.30;41.50
51613;DHT22;37694;51.748;14.326;2023-12-20T09:40:18;22.30;41.50
51613;DHT22;37694;51.748;14.326;2023-12-20T09:42:48;22.30;41.50
51613;DHT22;37694;51.748;14.326;2023-12-20T09:45:20;22.30;41.50
51613;DHT22;37694;51.748;14.326;2023-12-20T09:47:47;22.30;41.50
51613;DHT22;37694;51.748;14.326;2023-12-20T09:50:14;22.30;41.50
51613;DHT22;37694;51.748;14.326;2023-12-20T09:52:41;22.30;41.50
51613;DHT22;37694;51.748;14.326;2023-12-20T09:55:07;22.30;41.50
51613;DHT22;37694;51.748;14.326;2023-12-20T09:57:33;22.20;41.50
51613;DHT22;37694;51.748;14.326;2023-12-20T09:59:59;22.30;41.40
51613;DHT22;37694;51.748;14.326;2023-12-20T10:02:26;22.30;41.50
51613;DHT22;37694;51.748;14.326;2023-12-20T10:04:54;22.30;41.40
51613;DHT22;37694;51.748;14.326;2023-12-20T10:07:20;22.30;41.30
51613;DHT22;37694;51.748;14.326;2023-12-20T10:09:47;22.30;41.20
51613;DHT22;37694;51.748;14.326;2023-12-20T10:12:13;22.30;41.20
51613;DHT22;37694;51.748;14.326;2023-12-20T10:14:39;22.20;41.20
51613;DHT22;37694;51.748;14.326;2023-12-20T10:17:05;22.20;41.30
51613;DHT22;37694;51.748;14.326;2023-12-20T10:19:32;22.20;41.20
51613;DHT22;37694;51.748;14.326;2023-12-20T10:21:59;22.20;41.20
51613;DHT22;37694;51.748;14.326;2023-12-20T10:24:27;22.30;41.30
51613;DHT22;37694;51.748;14.326;2023-12-20T10:27:04;22.30;41.40
51613;DHT22;37694;51.748;14.326;2023-12-20T10:29:36;22.40;41.50
51613;DHT22;37694;51.748;14.326;2023-12-20T10:32:24;22.40;41.40
51613;DHT22;37694;51.748;14.326;2023-12-20T10:34:51;22.50;41.30
51613;DHT22;37694;51.748;14.326;2023-12-20T10:37:16;22.40;41.50
51613;DHT22;37694;51.748;14.326;2023-12-20T10:39:43;22.50;41.70
51613;DHT22;37694;51.748;14.326;2023-12-20T10:42:11;22.50;41.30
51613;DHT22;37694;51.748;14.326;2023-12-20T10:44:37;22.40;41.10
51613;DHT22;37694;51.748;14.326;2023-12-20T10:47:04;22.40;41.00
51613;DHT22;37694;51.748;14.326;2023-12-20T10:49:31;22.40;41.00
51613;DHT22;37694;51.748;14.326;2023-12-20T10:51:58;22.40;41.00
51613;DHT22;37694;51.748;14.326;2023-12-20T10:54:25;22.30;41.00
51613;DHT22;37694;51.748;14.326;2023-12-20T10:56:52;22.30;41.00
51613;DHT22;37694;51.748;14.326;2023-12-20T10:59:20;22.30;41.00
51613;DHT22;37694;51.748;14.326;2023-12-20T11:01:47;22.30;41.00
51613;DHT22;37694;51.748;14.326;2023-12-20T11:04:20;22.30;41.00
51613;DHT22;37694;51.748;14.326;2023-12-20T11:06:58;22.30;41.00
51613;DHT22;37694;51.748;14.326;2023-12-20T11:09:33;22.30;41.00
51613;DHT22;37694;51.748;14.326;2023-12-20T11:12:15;22.30;41.00
51613;DHT22;37694;51.748;14.326;2023-12-20T11:14:51;22.30;41.00
51613;DHT22;37694;51.748;14.326;2023-12-20T11:17:17;22.30;41.00
51613;DHT22;37694;51.748;14.326;2023-12-20T11:20:04;22.20;41.00
51613;DHT22;37694;51.748;14.326;2023-12-20T11:22:31;22.20;41.00
51613;DHT22;37694;51.748;14.326;2023-12-20T11:25:05;22.20;41.10
51613;DHT22;37694;51.748;14.326;2023-12-20T11:27:33;22.20;41.00
51613;DHT22;37694;51.748;14.326;2023-12-20T11:29:59;22.20;41.10
51613;DHT22;37694;51.748;14.326;2023-12-20T11:32:28;22.10;41.00
51613;DHT22;37694;51.748;14.326;2023-12-20T11:37:21;22.10;41.10
51613;DHT22;37694;51.748;14.326;2023-12-20T11:40:05;22.10;41.00
51613;DHT22;37694;51.748;14.326;2023-12-20T11:42:41;22.10;40.90
51613;DHT22;37694;51.748;14.326;2023-12-20T11:45:15;22.10;41.10
51613;DHT22;37694;51.748;14.326;2023-12-20T11:47:51;22.10;41.00
51613;DHT22;37694;51.748;14.326;2023-12-20T11:50:21;22.10;40.90
51613;DHT22;37694;51.748;14.326;2023-12-20T11:52:48;22.00;41.00
51613;DHT22;37694;51.748;14.326;2023-12-20T11:55:13;22.00;41.00
51613;DHT22;37694;51.748;14.326;2023-12-20T11:57:39;22.00;41.00
51613;DHT22;37694;51.748;14.326;2023-12-20T12:00:06;22.00;40.90
51613;DHT22;37694;51.748;14.326;2023-12-20T12:02:32;22.00;40.90
51613;DHT22;37694;51.748;14.326;2023-12-20T12:04:59;22.00;40.90
51613;DHT22;37694;51.748;14.326;2023-12-20T12:07:25;21.90;40.90
51613;DHT22;37694;51.748;14.326;2023-12-20T12:09:50;21.90;40.90
51613;DHT22;37694;51.748;14.326;2023-12-20T12:12:17;21.90;40.90
51613;DHT22;37694;51.748;14.326;2023-12-20T12:14:46;21.90;40.90
51613;DHT22;37694;51.748;14.326;2023-12-20T12:17:13;21.90;40.90
51613;DHT22;37694;51.748;14.326;2023-12-20T12:19:40;21.90;41.70
51613;DHT22;37694;51.748;14.326;2023-12-20T12:22:10;21.90;40.90
51613;DHT22;37694;51.748;14.326;2023-12-20T12:24:42;21.90;41.00
51613;DHT22;37694;51.748;14.326;2023-12-20T12:27:08;21.90;40.90
51613;DHT22;37694;51.748;14.326;2023-12-20T12:29:34;21.80;40.80
51613;DHT22;37694;51.748;14.326;2023-12-20T12:32:01;21.80;40.80
51613;DHT22;37694;51.748;14.326;2023-12-20T12:34:29;21.80;40.80
51613;DHT22;37694;51.748;14.326;2023-12-20T12:36:56;21.80;40.80
51613;DHT22;37694;51.748;14.326;2023-12-20T12:39:23;21.80;40.90
51613;DHT22;37694;51.748;14.326;2023-12-20T12:41:51;21.80;40.80
51613;DHT22;37694;51.748;14.326;2023-12-20T12:44:17;21.70;40.80
51613;DHT22;37694;51.748;14.326;2023-12-20T12:46:44;21.70;40.80
51613;DHT22;37694;51.748;14.326;2023-12-20T12:49:10;21.70;40.70
51613;DHT22;37694;51.748;14.326;2023-12-20T12:51:35;21.70;40.80
51613;DHT22;37694;51.748;14.326;2023-12-20T12:54:01;21.70;40.80
51613;DHT22;37694;51.748;14.326;2023-12-20T12:56:27;21.70;40.80
51613;DHT22;37694;51.748;14.326;2023-12-20T12:58:53;21.70;40.80
51613;DHT22;37694;51.748;14.326;2023-12-20T13:01:18;21.70;40.80
51613;DHT22;37694;51.748;14.326;2023-12-20T13:03:44;21.60;40.80
51613;DHT22;37694;51.748;14.326;2023-12-20T13:06:10;21.70;40.80
51613;DHT22;37694;51.748;14.326;2023-12-20T13:08:35;21.60;40.80
51613;DHT22;37694;51.748;14.326;2023-12-20T13:11:01;21.60;40.80
51613;DHT22;37694;51.748;14.326;2023-12-20T13:13:30;21.60;40.70
51613;DHT22;37694;51.748;14.326;2023-12-20T13:15:56;21.60;40.80
51613;DHT22;37694;51.748;14.326;2023-12-20T13:18:23;21.60;40.70
51613;DHT22;37694;51.748;14.326;2023-12-20T13:20:49;21.60;40.80
51613;DHT22;37694;51.748;14.326;2023-12-20T13:23:15;21.60;40.60
51613;DHT22;37694;51.748;14.326;2023-12-20T13:25:41;21.50;40.60
51613;DHT22;37694;51.748;14.326;2023-12-20T13:28:07;21.50;40.70
51613;DHT22;37694;51.748;14.326;2023-12-20T13:30:34;21.50;40.60
51613;DHT22;37694;51.748;14.326;2023-12-20T13:32:59;21.50;40.60
51613;DHT22;37694;51.748;14.326;2023-12-20T13:35:25;21.50;40.60
51613;DHT22;37694;51.748;14.326;2023-12-20T13:37:51;21.50;40.60
51613;DHT22;37694;51.748;14.326;2023-12-20T13:40:17;21.50;40.60
51613;DHT22;37694;51.748;14.326;2023-12-20T13:42:43;21.50;40.70
51613;DHT22;37694;51.748;14.326;2023-12-20T13:45:09;21.40;40.60
51613;DHT22;37694;51.748;14.326;2023-12-20T13:47:35;21.40;40.60
51613;DHT22;37694;51.748;14.326;2023-12-20T13:50:01;21.40;40.60
51613;DHT22;37694;51.748;14.326;2023-12-20T13:52:27;21.40;40.70
51613;DHT22;37694;51.748;14.326;2023-12-20T13:54:53;21.40;40.60
51613;DHT22;37694;51.748;14.326;2023-12-20T13:57:19;21.40;40.60
51613;DHT22;37694;51.748;14.326;2023-12-20T13:59:44;21.40;40.60
51613;DHT22;37694;51.748;14.326;2023-12-20T14:02:10;21.30;40.60
51613;DHT22;37694;51.748;14.326;2023-12-20T14:04:36;21.30;40.60
51613;DHT22;37694;51.748;14.326;2023-12-20T14:07:01;21.30;40.60
51613;DHT22;37694;51.748;14.326;2023-12-20T14:09:28;21.30;40.50
51613;DHT22;37694;51.748;14.326;2023-12-20T14:11:53;21.30;40.60
51613;DHT22;37694;51.748;14.326;2023-12-20T14:14:20;21.30;40.60
51613;DHT22;37694;51.748;14.326;2023-12-20T14:16:45;21.30;40.50
51613;DHT22;37694;51.748;14.326;2023-12-20T14:19:12;21.30;40.50
51613;DHT22;37694;51.748;14.326;2023-12-20T14:21:38;21.30;40.40
51613;DHT22;37694;51.748;14.326;2023-12-20T14:24:04;21.30;40.60
51613;DHT22;37694;51.748;14.326;2023-12-20T14:26:30;21.30;40.50
51613;DHT22;37694;51.748;14.326;2023-12-20T14:28:56;21.30;40.50
51613;DHT22;37694;51.748;14.326;2023-12-20T14:31:22;21.30;40.50
51613;DHT22;37694;51.748;14.326;2023-12-20T14:33:50;21.30;40.50
51613;DHT22;37694;51.748;14.326;2023-12-20T14:36:17;21.30;40.50
51613;DHT22;37694;51.748;14.326;2023-12-20T14:38:43;21.30;40.50
51613;DHT22;37694;51.748;14.326;2023-12-20T14:41:09;21.30;40.50
51613;DHT22;37694;51.748;14.326;2023-12-20T14:43:35;21.30;40.40
51613;DHT22;37694;51.748;14.326;2023-12-20T14:46:01;21.30;40.90
51613;DHT22;37694;51.748;14.326;2023-12-20T14:48:26;21.30;41.00
51613;DHT22;37694;51.748;14.326;2023-12-20T14:50:53;21.30;41.10
51613;DHT22;37694;51.748;14.326;2023-12-20T14:53:19;21.40;41.00
51613;DHT22;37694;51.748;14.326;2023-12-20T14:55:45;21.50;40.90
51613;DHT22;37694;51.748;14.326;2023-12-20T14:58:11;21.60;40.80
51613;DHT22;37694;51.748;14.326;2023-12-20T15:00:37;21.60;40.70
51613;DHT22;37694;51.748;14.326;2023-12-20T15:03:03;21.70;40.60
51613;DHT22;37694;51.748;14.326;2023-12-20T15:05:30;21.80;40.60
51613;DHT22;37694;51.748;14.326;2023-12-20T15:07:56;21.90;40.50
51613;DHT22;37694;51.748;14.326;2023-12-20T15:10:22;22.00;40.40
51613;DHT22;37694;51.748;14.326;2023-12-20T15:12:48;22.10;40.40